createdAt,value
2022-11-30T00:01:19.452Z,16.20
2022-11-30T00:03:46.670Z,15.43
2022-11-30T00:06:16.025Z,15.53
2022-11-30T00:08:42.907Z,15.23
2022-11-30T00:11:17.857Z,15.50
2022-11-30T00:13:45.136Z,14.67
2022-11-30T00:16:11.865Z,14.77
2022-11-30T00:18:38.656Z,14.57
2022-11-30T00:21:10.734Z,12.87
2022-11-30T00:23:39.745Z,12.67
2022-11-30T00:26:09.013Z,12.43
2022-11-30T00:28:37.511Z,12.73
2022-11-30T00:31:06.988Z,10.90
2022-11-30T00:33:35.445Z,11.97
2022-11-30T00:36:08.246Z,11.77
2022-11-30T00:38:35.842Z,12.03
2022-11-30T00:41:03.432Z,11.37
2022-11-30T00:43:30.375Z,11.77
2022-11-30T00:45:57.383Z,14.57
2022-11-30T00:48:24.281Z,11.47
2022-11-30T00:50:51.367Z,11.23
2022-11-30T00:53:19.529Z,10.60
2022-11-30T00:55:46.767Z,11.77
2022-11-30T00:58:13.812Z,13.53
2022-11-30T01:00:40.710Z,11.53
2022-11-30T01:03:07.544Z,10.50
2022-11-30T01:05:34.874Z,10.50
2022-11-30T01:08:03.821Z,11.10
2022-11-30T01:10:30.682Z,10.83
2022-11-30T01:12:57.393Z,10.90
2022-11-30T01:15:24.167Z,10.90
2022-11-30T01:17:50.762Z,10.97
2022-11-30T01:20:17.687Z,10.33
2022-11-30T01:22:44.446Z,10.40
2022-11-30T01:25:11.149Z,10.70
2022-11-30T01:27:38.653Z,11.50
2022-11-30T01:30:05.963Z,10.97
2022-11-30T01:32:32.530Z,12.33
2022-11-30T01:34:59.139Z,12.87
2022-11-30T01:37:25.729Z,10.67
2022-11-30T01:39:52.380Z,9.40
2022-11-30T01:42:20.029Z,12.50
2022-11-30T01:44:57.894Z,11.87
2022-11-30T01:47:36.977Z,10.47
2022-11-30T01:50:09.308Z,11.83
2022-11-30T01:52:39.634Z,13.47
2022-11-30T01:55:21.241Z,12.13
2022-11-30T01:58:03.704Z,15.10
2022-11-30T02:00:30.344Z,13.93
2022-11-30T02:03:06.905Z,15.03
2022-11-30T02:05:36.033Z,15.77
2022-11-30T02:08:03.104Z,14.80
2022-11-30T02:10:34.245Z,15.53
2022-11-30T02:13:15.999Z,18.63
2022-11-30T02:16:21.243Z,15.93
2022-11-30T02:19:09.171Z,15.90
2022-11-30T02:22:02.661Z,14.87
2022-11-30T02:25:19.685Z,12.93
2022-11-30T02:27:58.062Z,14.90
2022-11-30T02:30:25.217Z,12.33
2022-11-30T02:32:56.105Z,14.20
2022-11-30T02:35:27.277Z,15.20
2022-11-30T02:37:54.703Z,14.47
2022-11-30T02:40:21.832Z,15.00
2022-11-30T02:42:51.870Z,13.77
2022-11-30T02:45:47.700Z,14.23
2022-11-30T02:48:17.140Z,12.47
2022-11-30T02:50:51.413Z,14.77
2022-11-30T02:53:18.943Z,14.40
2022-11-30T02:55:45.661Z,13.60
2022-11-30T02:58:14.090Z,14.17
2022-11-30T03:00:40.830Z,14.47
2022-11-30T03:03:07.579Z,15.13
2022-11-30T03:05:34.561Z,13.87
2022-11-30T03:08:01.167Z,12.87
2022-11-30T03:10:27.857Z,12.43
2022-11-30T03:12:58.753Z,13.67
2022-11-30T03:15:25.446Z,14.40
2022-11-30T03:17:52.092Z,14.40
2022-11-30T03:20:18.798Z,14.40
2022-11-30T03:22:45.409Z,14.53
2022-11-30T03:25:12.007Z,11.60
2022-11-30T03:27:38.588Z,14.53
2022-11-30T03:30:05.990Z,16.67
2022-11-30T03:32:32.601Z,13.57
2022-11-30T03:34:59.229Z,15.03
2022-11-30T03:37:25.824Z,14.40
2022-11-30T03:39:57.727Z,11.83
2022-11-30T03:42:24.867Z,13.27
2022-11-30T03:44:51.455Z,14.60
2022-11-30T03:47:18.034Z,12.80
2022-11-30T03:49:44.634Z,16.20
2022-11-30T03:52:11.219Z,12.27
2022-11-30T03:54:37.773Z,13.93
2022-11-30T03:57:04.384Z,18.13
2022-11-30T03:59:31.032Z,13.00
2022-11-30T04:01:57.760Z,13.83
2022-11-30T04:04:24.354Z,13.93
2022-11-30T04:06:51.045Z,14.43
2022-11-30T04:09:17.643Z,15.40
2022-11-30T04:11:44.249Z,13.70
2022-11-30T04:14:11.117Z,14.50
2022-11-30T04:16:37.814Z,16.43
2022-11-30T04:19:04.467Z,13.77
2022-11-30T04:21:31.150Z,14.10
2022-11-30T04:23:57.731Z,15.53
2022-11-30T04:26:24.311Z,15.17
2022-11-30T04:28:50.973Z,15.03
2022-11-30T04:31:17.620Z,14.57
2022-11-30T04:33:44.263Z,13.83
2022-11-30T04:36:20.154Z,16.40
2022-11-30T04:38:47.694Z,14.83
2022-11-30T04:41:14.373Z,16.30
2022-11-30T04:43:41.015Z,12.73
2022-11-30T04:46:07.913Z,16.07
2022-11-30T04:48:35.126Z,14.80
2022-11-30T04:51:03.406Z,15.37
2022-11-30T04:53:30.060Z,14.83
2022-11-30T04:55:56.651Z,14.50
2022-11-30T04:58:23.377Z,16.33
2022-11-30T05:00:52.964Z,16.23
2022-11-30T05:03:19.601Z,14.87
2022-11-30T05:05:46.166Z,15.53
2022-11-30T05:08:12.767Z,15.17
2022-11-30T05:10:39.364Z,19.63
2022-11-30T05:13:05.927Z,16.43
2022-11-30T05:15:33.001Z,15.93
2022-11-30T05:18:01.016Z,20.07
2022-11-30T05:20:28.835Z,17.53
2022-11-30T05:22:55.574Z,19.93
2022-11-30T05:25:22.237Z,19.67
2022-11-30T05:27:48.826Z,17.50
2022-11-30T05:30:15.662Z,20.43
2022-11-30T05:32:42.237Z,19.37
2022-11-30T05:35:09.329Z,21.80
2022-11-30T05:37:36.019Z,19.90
2022-11-30T05:40:02.713Z,19.97
2022-11-30T05:42:29.310Z,20.57
2022-11-30T05:44:55.961Z,24.17
2022-11-30T05:47:22.679Z,21.70
2022-11-30T05:49:49.259Z,23.50
2022-11-30T05:52:15.975Z,21.47
2022-11-30T05:54:42.548Z,22.73
2022-11-30T05:57:09.152Z,22.93
2022-11-30T05:59:35.734Z,22.87
2022-11-30T06:02:02.442Z,23.17
2022-11-30T06:04:29.191Z,25.60
2022-11-30T06:06:56.004Z,27.73
2022-11-30T06:09:23.259Z,27.87
2022-11-30T06:11:50.227Z,26.07
2022-11-30T06:14:17.085Z,24.90
2022-11-30T06:16:44.110Z,25.40
2022-11-30T06:19:10.865Z,24.63
2022-11-30T06:21:37.454Z,26.23
2022-11-30T06:24:04.308Z,28.03
2022-11-30T06:26:30.953Z,29.13
2022-11-30T06:28:57.634Z,25.03
2022-11-30T06:31:24.263Z,27.00
2022-11-30T06:33:51.303Z,27.90
2022-11-30T06:36:22.802Z,27.90
2022-11-30T06:38:49.810Z,26.83
2022-11-30T06:41:16.756Z,24.03
2022-11-30T06:43:43.346Z,30.67
2022-11-30T06:46:10.094Z,27.57
2022-11-30T06:48:36.831Z,26.90
2022-11-30T06:51:08.322Z,24.80
2022-11-30T06:53:35.402Z,25.43
2022-11-30T06:56:11.899Z,27.93
2022-11-30T06:58:39.743Z,28.90
2022-11-30T07:01:12.795Z,25.73
2022-11-30T07:03:40.339Z,25.23
2022-11-30T07:06:12.511Z,26.10
2022-11-30T07:08:39.474Z,27.13
2022-11-30T07:11:07.374Z,26.90
2022-11-30T07:13:34.292Z,29.70
2022-11-30T07:16:05.350Z,26.63
2022-11-30T07:18:32.788Z,27.43
2022-11-30T07:21:03.441Z,30.50
2022-11-30T07:23:55.588Z,27.97
2022-11-30T07:26:23.540Z,32.67
2022-11-30T07:28:54.585Z,32.17
2022-11-30T07:31:30.439Z,29.43
2022-11-30T07:33:58.581Z,28.03
2022-11-30T07:36:26.595Z,27.73
2022-11-30T07:38:53.253Z,30.80
2022-11-30T07:41:19.983Z,31.00
2022-11-30T07:43:46.576Z,31.60
2022-11-30T07:46:15.010Z,26.47
2022-11-30T07:48:42.567Z,32.63
2022-11-30T07:51:13.541Z,31.97
2022-11-30T07:53:40.526Z,29.37
2022-11-30T07:56:09.937Z,34.27
2022-11-30T07:58:37.514Z,32.73
2022-11-30T08:01:06.664Z,34.53
2022-11-30T08:03:36.978Z,36.87
2022-11-30T08:06:09.278Z,32.57
2022-11-30T08:08:38.938Z,33.73
2022-11-30T08:11:07.072Z,31.33
2022-11-30T08:13:33.714Z,31.83
2022-11-30T08:16:05.047Z,33.73
2022-11-30T08:18:31.627Z,34.00
2022-11-30T08:21:00.224Z,33.17
2022-11-30T08:23:29.590Z,32.87
2022-11-30T08:25:56.242Z,32.83
2022-11-30T08:28:22.812Z,30.17
2022-11-30T08:30:49.450Z,34.53
2022-11-30T08:33:16.077Z,36.00
2022-11-30T08:35:42.981Z,34.13
2022-11-30T08:38:09.546Z,34.60
2022-11-30T08:40:36.185Z,32.10
2022-11-30T08:43:02.769Z,31.57
2022-11-30T08:45:29.354Z,33.23
2022-11-30T08:47:55.966Z,32.80
2022-11-30T08:50:22.844Z,35.30
2022-11-30T08:52:49.558Z,32.57
2022-11-30T08:55:16.308Z,31.93
2022-11-30T08:57:42.990Z,35.90
2022-11-30T09:00:10.335Z,33.23
2022-11-30T09:02:37.479Z,28.20
2022-11-30T09:05:04.528Z,34.33
2022-11-30T09:07:31.174Z,34.00
2022-11-30T09:09:57.822Z,34.27
2022-11-30T09:12:24.418Z,31.37
2022-11-30T09:14:57.370Z,34.70
2022-11-30T09:17:24.872Z,33.97
2022-11-30T09:19:51.537Z,32.37
2022-11-30T09:22:18.291Z,33.87
2022-11-30T09:24:45.239Z,31.20
2022-11-30T09:27:12.485Z,35.40
2022-11-30T09:29:39.113Z,32.00
2022-11-30T09:32:06.634Z,34.30
2022-11-30T09:34:33.239Z,31.40
2022-11-30T09:36:59.826Z,32.57
2022-11-30T09:39:26.465Z,31.20
2022-11-30T09:42:11.839Z,34.23
2022-11-30T09:45:29.900Z,38.57
2022-11-30T09:48:07.688Z,33.23
2022-11-30T09:50:40.882Z,34.90
2022-11-30T09:53:29.767Z,35.53
2022-11-30T09:55:58.503Z,31.50
2022-11-30T09:58:44.734Z,30.87
2022-11-30T10:01:17.901Z,31.70
2022-11-30T10:03:45.099Z,31.93
2022-11-30T10:06:26.228Z,24.53
2022-11-30T10:09:14.978Z,30.10
2022-11-30T10:12:00.067Z,26.83
2022-11-30T10:15:01.720Z,26.30
2022-11-30T10:17:31.277Z,26.00
2022-11-30T10:20:19.130Z,23.90
2022-11-30T10:23:13.334Z,29.23
2022-11-30T10:25:51.836Z,26.73
2022-11-30T10:28:47.863Z,24.93
2022-11-30T10:31:16.086Z,25.57
2022-11-30T10:33:51.473Z,25.20
2022-11-30T10:36:33.141Z,29.27
2022-11-30T10:39:04.561Z,25.43
2022-11-30T10:41:33.870Z,24.63
2022-11-30T10:44:12.285Z,27.53
2022-11-30T10:46:44.681Z,24.10
2022-11-30T10:49:18.674Z,25.47
2022-11-30T10:51:50.107Z,28.60
2022-11-30T10:54:19.653Z,29.13
2022-11-30T10:56:47.073Z,30.07
2022-11-30T10:59:18.496Z,25.37
2022-11-30T11:01:45.233Z,26.37
2022-11-30T11:04:19.233Z,27.97
2022-11-30T11:06:55.060Z,24.63
2022-11-30T11:09:46.705Z,28.73
2022-11-30T11:12:27.658Z,27.27
2022-11-30T11:15:26.809Z,25.50
2022-11-30T11:18:11.486Z,25.70
2022-11-30T11:20:42.450Z,26.67
2022-11-30T11:23:27.495Z,27.20
2022-11-30T11:25:54.315Z,24.33
2022-11-30T11:28:24.276Z,27.77
2022-11-30T11:30:55.932Z,22.97
2022-11-30T11:33:29.688Z,24.83
2022-11-30T11:36:25.141Z,28.23
2022-11-30T11:38:51.908Z,29.33
2022-11-30T11:41:25.108Z,26.13
2022-11-30T11:44:10.028Z,25.00
2022-11-30T11:46:52.218Z,25.77
2022-11-30T11:49:23.061Z,27.43
2022-11-30T11:52:00.846Z,29.20
2022-11-30T11:54:34.301Z,26.53
2022-11-30T11:57:02.061Z,27.27
2022-11-30T11:59:37.677Z,28.63
2022-11-30T12:02:32.353Z,26.90
2022-11-30T12:05:17.623Z,28.10
2022-11-30T12:08:03.598Z,25.93
2022-11-30T12:10:52.817Z,24.70
2022-11-30T12:13:29.269Z,25.10
2022-11-30T12:16:15.018Z,24.67
2022-11-30T12:18:59.738Z,25.67
2022-11-30T12:21:45.484Z,25.77
2022-11-30T12:24:21.605Z,26.43
2022-11-30T12:27:07.458Z,25.37
2022-11-30T12:29:48.112Z,24.33
2022-11-30T12:32:28.694Z,23.83
2022-11-30T12:35:12.417Z,24.13
2022-11-30T12:37:54.188Z,24.90
2022-11-30T12:40:41.648Z,24.63
2022-11-30T12:43:20.079Z,24.50
2022-11-30T12:45:48.370Z,25.90
2022-11-30T12:48:39.029Z,24.63
2022-11-30T12:51:26.392Z,24.60
2022-11-30T12:54:32.500Z,26.90
2022-11-30T12:57:19.722Z,22.47
2022-11-30T13:00:09.915Z,24.60
2022-11-30T13:02:44.607Z,23.00
2022-11-30T13:05:22.796Z,24.30
2022-11-30T13:08:04.658Z,22.83
2022-11-30T13:10:42.879Z,26.73
2022-11-30T13:13:25.463Z,27.83
2022-11-30T13:15:52.657Z,22.10
2022-11-30T13:18:21.602Z,25.43
2022-11-30T13:21:06.797Z,21.30
2022-11-30T13:23:38.682Z,21.60
2022-11-30T13:26:21.928Z,22.50
2022-11-30T13:29:15.721Z,21.60
2022-11-30T13:32:34.002Z,22.87
2022-11-30T13:35:29.331Z,21.63
2022-11-30T13:38:36.698Z,23.93
2022-11-30T13:41:07.234Z,22.80
2022-11-30T13:43:47.891Z,20.97
2022-11-30T13:46:19.532Z,21.70
2022-11-30T13:48:47.034Z,22.67
2022-11-30T13:51:38.907Z,23.47
2022-11-30T13:54:39.345Z,20.50
2022-11-30T13:57:18.946Z,24.50
2022-11-30T13:59:47.078Z,21.17
2022-11-30T14:05:39.814Z,26.27
2022-11-30T14:08:06.450Z,23.60
2022-11-30T14:10:35.657Z,25.63
2022-11-30T14:13:11.221Z,23.23
2022-11-30T14:15:43.300Z,23.60
2022-11-30T14:18:09.926Z,24.80
2022-11-30T14:20:54.024Z,23.77
2022-11-30T14:23:57.548Z,22.80
2022-11-30T14:26:29.391Z,27.17
2022-11-30T14:29:08.275Z,22.67
2022-11-30T14:31:41.281Z,25.27
2022-11-30T14:34:29.567Z,24.20
2022-11-30T14:37:02.538Z,23.93
2022-11-30T14:39:33.967Z,22.83
2022-11-30T14:42:01.725Z,23.00
2022-11-30T14:44:28.473Z,21.73
2022-11-30T14:46:55.211Z,25.20
2022-11-30T14:49:23.915Z,25.30
2022-11-30T14:52:00.638Z,25.53
2022-11-30T14:54:45.007Z,23.47
2022-11-30T14:57:22.223Z,24.17
2022-11-30T14:59:54.845Z,25.47
2022-11-30T15:02:37.289Z,23.67
2022-11-30T15:05:07.141Z,24.30
2022-11-30T15:07:35.318Z,24.27
2022-11-30T15:10:06.651Z,26.40
2022-11-30T15:12:34.814Z,22.30
2022-11-30T15:15:21.655Z,26.50
2022-11-30T15:17:54.468Z,25.97
2022-11-30T15:20:28.978Z,28.20
2022-11-30T15:23:00.125Z,25.83
2022-11-30T15:25:39.944Z,25.80
2022-11-30T15:28:07.352Z,25.90
2022-11-30T15:30:38.744Z,22.17
2022-11-30T15:33:06.781Z,23.57
2022-11-30T15:35:50.338Z,27.20
2022-11-30T15:38:23.945Z,25.73
2022-11-30T15:40:54.522Z,26.77
2022-11-30T15:43:24.423Z,23.63
2022-11-30T15:45:56.760Z,25.97
2022-11-30T15:48:32.116Z,26.63
2022-11-30T15:51:00.236Z,27.00
2022-11-30T15:53:30.427Z,26.43
2022-11-30T15:56:06.417Z,24.07
2022-11-30T15:58:45.255Z,26.10
2022-11-30T16:01:22.412Z,25.60
2022-11-30T16:03:54.946Z,23.37
2022-11-30T16:06:23.731Z,22.03
2022-11-30T16:08:50.931Z,23.50
2022-11-30T16:11:19.584Z,23.33
2022-11-30T16:13:47.445Z,22.20
2022-11-30T16:16:19.749Z,21.07
2022-11-30T16:18:46.658Z,21.27
2022-11-30T16:21:16.485Z,24.17
2022-11-30T16:23:43.309Z,24.40
2022-11-30T16:26:43.132Z,24.47
2022-11-30T16:29:02.551Z,25.60
2022-11-30T16:31:29.377Z,25.13
2022-11-30T16:33:56.037Z,25.47
2022-11-30T16:36:22.762Z,23.77
2022-11-30T16:38:50.932Z,25.17
2022-11-30T16:41:20.865Z,23.33
2022-11-30T16:43:49.339Z,22.97
2022-11-30T16:46:22.117Z,22.87
2022-11-30T16:48:49.359Z,25.40
2022-11-30T16:51:27.458Z,24.10
2022-11-30T16:53:54.502Z,23.90
2022-11-30T16:56:21.597Z,22.53
2022-11-30T16:58:48.519Z,22.77
2022-11-30T17:01:38.048Z,21.73
2022-11-30T17:04:18.040Z,22.33
2022-11-30T17:06:48.283Z,25.50
2022-11-30T17:09:17.918Z,22.43
2022-11-30T17:11:46.789Z,26.63
2022-11-30T17:14:14.558Z,24.87
2022-11-30T17:16:41.517Z,24.70
2022-11-30T17:19:08.910Z,25.40
2022-11-30T17:21:37.058Z,23.43
2022-11-30T17:24:05.334Z,23.97
2022-11-30T17:26:32.147Z,22.93
2022-11-30T17:28:58.834Z,25.93
2022-11-30T17:31:25.594Z,25.40
2022-11-30T17:33:52.234Z,24.20
2022-11-30T17:36:18.942Z,23.80
2022-11-30T17:38:46.141Z,26.50
2022-11-30T17:41:18.842Z,25.17
2022-11-30T17:43:46.853Z,23.43
2022-11-30T17:46:16.100Z,23.03
2022-11-30T17:48:43.688Z,22.77
2022-11-30T17:51:11.181Z,23.50
2022-11-30T17:53:42.047Z,23.17
2022-11-30T17:56:14.171Z,26.63
2022-11-30T17:58:44.037Z,21.93
2022-11-30T18:01:22.654Z,22.50
2022-11-30T18:03:51.774Z,23.60
2022-11-30T18:06:19.313Z,24.10
2022-11-30T18:08:46.334Z,25.83
2022-11-30T18:11:21.349Z,25.07
2022-11-30T18:13:51.450Z,22.40
2022-11-30T18:16:27.410Z,27.00
2022-11-30T18:18:56.506Z,24.27
2022-11-30T18:21:25.141Z,26.70
2022-11-30T18:23:53.130Z,22.77
2022-11-30T18:26:22.051Z,24.47
2022-11-30T18:28:56.541Z,23.77
2022-11-30T18:31:23.757Z,28.80
2022-11-30T18:33:55.823Z,25.13
2022-11-30T18:36:22.740Z,27.90
2022-11-30T18:38:49.503Z,24.47
2022-11-30T18:41:16.153Z,25.80
2022-11-30T18:43:42.836Z,25.33
2022-11-30T18:46:11.564Z,24.97
2022-11-30T18:48:39.231Z,25.40
2022-11-30T18:51:14.114Z,24.87
2022-11-30T18:53:41.455Z,28.90
2022-11-30T18:56:17.038Z,24.10
2022-11-30T18:58:44.962Z,29.97
2022-11-30T19:01:18.610Z,25.20
2022-11-30T19:03:53.446Z,24.43
2022-11-30T19:06:20.643Z,26.27
2022-11-30T19:08:48.132Z,26.23
2022-11-30T19:11:16.435Z,26.37
2022-11-30T19:13:43.876Z,26.73
2022-11-30T19:16:13.196Z,25.20
2022-11-30T19:18:40.214Z,24.97
2022-11-30T19:21:12.992Z,27.40
2022-11-30T19:23:40.141Z,24.00
2022-11-30T19:26:08.151Z,26.53
2022-11-30T19:28:36.805Z,23.50
2022-11-30T19:31:11.764Z,23.80
2022-11-30T19:33:40.579Z,25.40
2022-11-30T19:36:10.429Z,25.53
2022-11-30T19:38:37.138Z,25.47
2022-11-30T19:41:08.422Z,25.73
2022-11-30T19:43:35.949Z,24.37
2022-11-30T19:46:07.022Z,24.20
2022-11-30T19:48:34.444Z,25.63
2022-11-30T19:51:12.115Z,27.13
2022-11-30T19:53:43.175Z,23.13
2022-11-30T19:56:17.344Z,22.90
2022-11-30T19:58:45.320Z,21.83
2022-11-30T20:01:20.107Z,24.40
2022-11-30T20:03:46.770Z,23.70
2022-11-30T20:06:13.526Z,23.77
2022-11-30T20:08:41.080Z,22.27
2022-11-30T20:11:15.854Z,23.10
2022-11-30T20:13:44.035Z,23.40
2022-11-30T20:16:13.386Z,22.90
2022-11-30T20:18:45.806Z,22.27
2022-11-30T20:21:19.397Z,24.63
2022-11-30T20:23:49.225Z,25.10
2022-11-30T20:26:17.127Z,20.90
2022-11-30T20:28:44.823Z,23.20
2022-11-30T20:31:13.115Z,23.47
2022-11-30T20:33:39.784Z,23.83
2022-11-30T20:36:08.888Z,24.33
2022-11-30T20:38:35.780Z,21.20
2022-11-30T20:41:02.668Z,21.73
2022-11-30T20:43:29.814Z,21.77
2022-11-30T20:45:56.682Z,24.90
2022-11-30T20:48:23.411Z,21.43
2022-11-30T20:51:14.013Z,24.37
2022-11-30T20:53:36.821Z,21.97
2022-11-30T20:56:03.711Z,20.53
2022-11-30T20:58:30.894Z,22.10
2022-11-30T21:00:59.402Z,21.77
2022-11-30T21:03:26.586Z,23.10
2022-11-30T21:05:53.281Z,20.10
2022-11-30T21:08:19.941Z,23.13
2022-11-30T21:10:46.620Z,21.47
2022-11-30T21:13:13.430Z,22.53
2022-11-30T21:15:40.206Z,24.63
2022-11-30T21:18:07.185Z,22.67
2022-11-30T21:20:33.840Z,23.00
2022-11-30T21:23:00.480Z,23.23
2022-11-30T21:25:27.273Z,21.33
2022-11-30T21:27:53.946Z,26.27
2022-11-30T21:30:20.646Z,25.47
2022-11-30T21:32:47.278Z,22.93
2022-11-30T21:35:13.951Z,21.87
2022-11-30T21:37:40.679Z,25.60
2022-11-30T21:40:08.170Z,25.87
2022-11-30T21:42:34.829Z,24.73
2022-11-30T21:45:01.458Z,24.93
2022-11-30T21:47:31.855Z,23.87
2022-11-30T21:49:59.632Z,25.80
2022-11-30T21:52:26.567Z,23.57
2022-11-30T21:54:53.849Z,24.70
2022-11-30T21:57:21.853Z,22.63
2022-11-30T21:59:48.782Z,21.27
2022-11-30T22:02:15.624Z,21.63
2022-11-30T22:04:42.513Z,23.53
2022-11-30T22:07:12.492Z,21.63
2022-11-30T22:09:39.308Z,22.37
2022-11-30T22:12:06.128Z,24.40
2022-11-30T22:14:33.052Z,24.00
2022-11-30T22:16:59.725Z,23.90
2022-11-30T22:19:26.481Z,22.50
2022-11-30T22:21:53.112Z,23.40
2022-11-30T22:24:19.813Z,20.30
2022-11-30T22:26:46.595Z,24.17
2022-11-30T22:29:21.080Z,21.27
2022-11-30T22:31:49.987Z,25.17
2022-11-30T22:34:17.118Z,20.23
2022-11-30T22:36:45.068Z,20.57
2022-11-30T22:39:17.372Z,20.63
2022-11-30T22:41:45.411Z,27.53
2022-11-30T22:44:13.760Z,21.63
2022-11-30T22:46:40.847Z,23.07
2022-11-30T22:49:09.498Z,21.63
2022-11-30T22:51:38.070Z,20.77
2022-11-30T22:54:06.246Z,23.57
2022-11-30T22:56:38.340Z,22.63
2022-11-30T22:59:06.243Z,21.37
2022-11-30T23:01:39.101Z,21.70
2022-11-30T23:04:11.727Z,19.47
2022-11-30T23:06:40.333Z,18.63
2022-11-30T23:09:11.545Z,20.57
2022-11-30T23:11:38.715Z,21.03
2022-11-30T23:14:06.131Z,22.67
2022-11-30T23:16:32.865Z,20.43
2022-11-30T23:19:00.499Z,21.70
2022-11-30T23:21:38.921Z,20.47
2022-11-30T23:24:11.003Z,17.53
2022-11-30T23:26:38.825Z,21.67
2022-11-30T23:29:08.231Z,19.20
2022-11-30T23:31:37.548Z,21.17
2022-11-30T23:34:07.234Z,19.03
2022-11-30T23:36:34.927Z,21.83
2022-11-30T23:39:05.319Z,22.17
2022-11-30T23:41:32.065Z,19.60
2022-11-30T23:43:58.803Z,18.07
2022-11-30T23:46:25.589Z,17.73
2022-11-30T23:48:52.562Z,18.97
2022-11-30T23:51:19.503Z,21.87
2022-11-30T23:53:46.239Z,22.30
2022-11-30T23:56:15.145Z,19.50
2022-11-30T23:58:42.427Z,19.40
